Time;durP1;ratioP1;P1;durP2;ratioP2;P2;SDS_P1;SDS_P2;PMS_P1;PMS_P2;Temp;Humidity;BMP_temperature;BMP_pressure;BME280_temperature;BME280_humidity;BME280_pressure;Samples;Min_cycle;Max_cycle;Signal;HPM_P1;HPM_P2
2022/01/30 00:00:23;;;;;;;4.25;1.50;;;8.20;91.40;;;;;;5033725;28;20026;-72
2022/01/30 00:02:51;;;;;;;3.33;1.50;;;8.10;91.40;;;;;;5033405;28;20077;-73
2022/01/30 00:05:18;;;;;;;10.32;1.73;;;8.10;91.60;;;;;;5033972;28;20128;-72
2022/01/30 00:07:44;;;;;;;5.25;1.90;;;8.10;91.50;;;;;;5033819;28;20028;-72
2022/01/30 00:10:12;;;;;;;7.03;2.28;;;8.10;91.60;;;;;;5033579;28;20096;-71
2022/01/30 00:12:53;;;;;;;6.50;2.00;;;8.00;91.70;;;;;;5033586;28;20057;-73
2022/01/30 00:15:24;;;;;;;9.27;2.60;;;8.10;91.80;;;;;;5033901;28;20040;-72
2022/01/30 00:18:06;;;;;;;5.82;2.05;;;8.10;91.80;;;;;;5033626;28;20126;-72
2022/01/30 00:20:34;;;;;;;8.10;1.98;;;8.10;92.20;;;;;;5033630;28;20038;-72
2022/01/30 00:23:11;;;;;;;6.00;1.58;;;8.20;92.00;;;;;;5033760;28;20104;-72
2022/01/30 00:25:50;;;;;;;7.07;2.03;;;8.20;91.90;;;;;;5033597;28;20429;-72
2022/01/30 00:28:18;;;;;;;4.55;1.77;;;8.10;92.20;;;;;;5015577;28;20407;-72
2022/01/30 00:30:45;;;;;;;4.10;1.92;;;8.10;92.80;;;;;;5033243;28;20434;-72
2022/01/30 00:33:11;;;;;;;4.40;1.80;;;8.20;92.70;;;;;;5033434;28;20175;-72
2022/01/30 00:35:39;;;;;;;4.30;1.63;;;8.10;92.70;;;;;;5033509;28;20021;-72
2022/01/30 00:38:16;;;;;;;3.60;1.88;;;8.20;91.90;;;;;;5015468;28;20029;-72
2022/01/30 00:40:49;;;;;;;5.15;1.77;;;8.10;91.90;;;;;;5033652;28;20036;-72
2022/01/30 00:43:15;;;;;;;5.70;2.15;;;8.10;92.10;;;;;;5015735;28;20029;-72
2022/01/30 00:45:42;;;;;;;5.97;1.58;;;8.00;92.00;;;;;;5033407;28;20442;-73
2022/01/30 00:48:08;;;;;;;7.87;2.43;;;8.00;92.10;;;;;;5032615;28;20030;-73
2022/01/30 00:50:35;;;;;;;5.33;2.17;;;8.00;92.20;;;;;;5033394;28;20601;-72
2022/01/30 00:53:01;;;;;;;4.85;2.03;;;8.00;92.50;;;;;;5033094;28;20260;-72
2022/01/30 00:55:29;;;;;;;4.03;2.10;;;8.10;92.60;;;;;;5032804;28;20076;-72
2022/01/30 00:57:57;;;;;;;5.90;2.13;;;8.10;92.60;;;;;;5032941;28;20284;-72
2022/01/30 01:00:24;;;;;;;5.82;2.13;;;8.10;92.50;;;;;;5032996;28;20379;-72
2022/01/30 01:02:51;;;;;;;6.15;2.22;;;8.10;92.80;;;;;;5033377;28;20145;-71
2022/01/30 01:05:17;;;;;;;7.47;1.92;;;8.10;92.90;;;;;;5032925;28;20087;-72
2022/01/30 01:07:46;;;;;;;3.92;1.83;;;8.10;93.10;;;;;;5032918;28;20025;-73
2022/01/30 01:10:39;;;;;;;4.55;1.75;;;8.10;93.00;;;;;;5014765;28;20413;-72
2022/01/30 01:23:54;;;;;;;6.50;1.85;;;7.80;94.00;;;;;;5013110;28;20037;-72
2022/01/30 01:26:22;;;;;;;5.28;1.77;;;7.80;94.10;;;;;;5012599;28;20034;-72
2022/01/30 01:28:48;;;;;;;6.53;1.83;;;7.90;94.20;;;;;;5012619;28;20022;-73
2022/01/30 01:31:15;;;;;;;5.93;1.85;;;7.90;94.20;;;;;;5012493;28;20036;-72
2022/01/30 01:36:12;;;;;;;3.72;1.60;;;8.00;94.50;;;;;;5012446;28;20030;-72
2022/01/30 01:38:38;;;;;;;3.75;1.58;;;8.00;94.30;;;;;;5012514;28;20113;-72
2022/01/30 01:41:04;;;;;;;4.63;1.70;;;8.00;94.40;;;;;;5017282;28;20108;-73
2022/01/30 01:43:31;;;;;;;6.17;2.10;;;8.00;94.50;;;;;;5032188;28;20068;-72
2022/01/30 01:45:59;;;;;;;12.02;2.78;;;8.00;94.60;;;;;;5032421;28;20033;-73
2022/01/30 01:48:25;;;;;;;4.55;1.83;;;8.00;94.60;;;;;;5031832;28;20062;-72
2022/01/30 01:51:06;;;;;;;4.10;1.88;;;8.00;95.20;;;;;;5031948;28;20434;-72
2022/01/30 01:53:34;;;;;;;3.33;1.60;;;8.00;94.80;;;;;;5031697;28;20018;-71
2022/01/30 01:56:00;;;;;;;5.28;1.70;;;8.00;94.80;;;;;;5014399;28;20201;-72
2022/01/30 01:58:28;;;;;;;7.63;1.88;;;8.00;94.70;;;;;;5031706;28;20489;-72
2022/01/30 02:00:54;;;;;;;4.90;1.65;;;7.90;94.80;;;;;;5014363;28;20033;-72
2022/01/30 02:03:22;;;;;;;2.80;1.48;;;7.90;94.80;;;;;;5031659;28;20260;-73
2022/01/30 02:05:53;;;;;;;4.80;1.90;;;7.90;94.90;;;;;;5031483;28;20040;-71
2022/01/30 02:08:31;;;;;;;6.07;1.80;;;8.00;94.90;;;;;;5014234;28;20021;-73
2022/01/30 02:11:05;;;;;;;6.25;1.83;;;7.90;94.80;;;;;;5032215;28;20071;-73
2022/01/30 02:24:29;;;;;;;4.90;1.83;;;7.80;94.80;;;;;;5031743;28;20032;-73
2022/01/30 02:26:56;;;;;;;4.55;1.95;;;7.80;94.90;;;;;;5013607;28;20038;-73
2022/01/30 02:29:22;;;;;;;3.53;1.83;;;7.70;95.00;;;;;;5013613;28;20417;-72
2022/01/30 02:31:48;;;;;;;4.80;1.73;;;7.70;95.10;;;;;;5013457;28;20276;-72
2022/01/30 02:34:14;;;;;;;4.80;1.60;;;7.70;95.50;;;;;;5013348;28;20095;-73
2022/01/30 02:36:50;;;;;;;3.70;1.70;;;7.70;95.70;;;;;;5031353;28;20430;-72
2022/01/30 02:39:18;;;;;;;2.90;1.60;;;7.70;95.70;;;;;;5031020;28;20021;-72
2022/01/30 02:41:45;;;;;;;6.68;1.48;;;7.70;95.70;;;;;;5031356;28;20620;-72
2022/01/30 02:44:22;;;;;;;3.90;1.65;;;7.80;95.70;;;;;;5030613;28;20029;-73
2022/01/30 02:46:55;;;;;;;4.10;1.55;;;7.90;95.70;;;;;;5031152;28;20070;-72
2022/01/30 02:54:21;;;;;;;3.22;1.38;;;7.80;95.90;;;;;;5031076;28;20446;-71
2022/01/30 02:56:48;;;;;;;3.83;1.55;;;7.80;95.80;;;;;;5031050;28;20414;-71
2022/01/30 02:59:15;;;;;;;6.05;1.70;;;7.80;95.80;;;;;;5031557;28;20033;-72
2022/01/30 03:01:41;;;;;;;6.40;1.65;;;7.90;95.80;;;;;;5031499;28;20035;-71
2022/01/30 03:04:08;;;;;;;7.10;1.88;;;7.90;95.90;;;;;;5030731;28;20051;-71
2022/01/30 03:06:35;;;;;;;4.10;1.60;;;7.90;95.90;;;;;;5013000;28;20084;-72
2022/01/30 03:09:05;;;;;;;7.45;1.60;;;8.00;95.90;;;;;;5030915;28;20384;-73
2022/01/30 03:11:35;;;;;;;3.70;1.70;;;8.00;96.00;;;;;;5030916;28;20468;-71
2022/01/30 03:14:02;;;;;;;3.85;1.70;;;8.00;96.00;;;;;;5013068;28;20029;-71
2022/01/30 03:16:28;;;;;;;3.38;1.50;;;8.00;96.00;;;;;;5030982;28;20381;-72
2022/01/30 03:18:54;;;;;;;5.20;1.58;;;8.00;96.00;;;;;;5030700;28;20025;-72
2022/01/30 03:21:20;;;;;;;3.28;1.70;;;8.00;96.10;;;;;;5031172;28;20109;-73
2022/01/30 03:23:47;;;;;;;5.65;1.70;;;8.10;96.10;;;;;;5030702;28;20048;-71
2022/01/30 03:26:14;;;;;;;4.90;1.50;;;8.10;96.00;;;;;;5030879;28;20382;-72
2022/01/30 03:28:42;;;;;;;4.60;1.65;;;8.10;96.00;;;;;;5030766;28;20018;-71
2022/01/30 03:31:12;;;;;;;3.97;1.40;;;8.10;96.00;;;;;;5030684;28;20462;-73
2022/01/30 03:33:38;;;;;;;3.58;1.70;;;8.20;96.00;;;;;;5012819;28;20026;-71
2022/01/30 03:36:06;;;;;;;3.67;1.63;;;8.20;95.80;;;;;;5030631;28;20465;-72
2022/01/30 03:38:33;;;;;;;5.75;1.40;;;8.20;95.70;;;;;;5030666;28;20029;-72
2022/01/30 03:40:58;;;;;;;;;;;8.30;95.60;;;;;;5013199;28;20029;-71
2022/01/30 03:43:25;;;;;;;5.50;2.03;;;8.30;95.60;;;;;;5030559;28;19973;-72
2022/01/30 03:45:51;;;;;;;5.27;1.53;;;8.40;95.50;;;;;;5030352;28;20042;-72
2022/01/30 03:48:17;;;;;;;4.97;1.87;;;8.50;95.40;;;;;;5030707;28;20032;-72
2022/01/30 03:50:44;;;;;;;4.65;1.45;;;8.50;95.30;;;;;;5030687;28;20025;-71
2022/01/30 03:53:10;;;;;;;;;;;8.60;95.30;;;;;;5031247;28;20033;-72
2022/01/30 03:55:38;;;;;;;3.17;1.58;;;8.60;95.30;;;;;;5013373;28;20022;-71
2022/01/30 03:58:05;;;;;;;3.63;1.52;;;8.60;95.20;;;;;;5000288;28;20524;-72
2022/01/30 04:00:31;;;;;;;3.60;1.40;;;8.60;95.50;;;;;;5034424;28;20040;-72
2022/01/30 04:02:59;;;;;;;5.78;1.50;;;8.60;95.20;;;;;;5034369;28;20067;-72
2022/01/30 04:05:26;;;;;;;;;;;8.60;95.30;;;;;;5034480;28;20037;-71
2022/01/30 04:07:53;;;;;;;5.47;1.63;;;8.60;95.30;;;;;;5034428;28;19909;-72
2022/01/30 04:10:19;;;;;;;4.72;1.50;;;8.60;95.30;;;;;;5034011;28;20028;-73
2022/01/30 04:12:45;;;;;;;3.65;1.70;;;8.60;95.30;;;;;;5033881;28;20124;-73
2022/01/30 04:15:12;;;;;;;3.63;1.60;;;8.60;95.30;;;;;;5034168;28;20104;-71
2022/01/30 04:17:38;;;;;;;4.35;1.30;;;8.70;95.30;;;;;;5034332;28;20056;-72
2022/01/30 04:20:05;;;;;;;3.40;1.60;;;8.80;95.00;;;;;;5033782;28;20020;-72
2022/01/30 04:22:31;;;;;;;6.35;1.77;;;8.80;94.80;;;;;;5033558;28;20330;-72
2022/01/30 04:24:57;;;;;;;4.55;1.50;;;8.90;94.80;;;;;;5033632;28;20462;-73
2022/01/30 04:27:23;;;;;;;3.60;1.33;;;8.80;94.90;;;;;;5033805;28;20026;-73
2022/01/30 04:29:49;;;;;;;8.32;1.70;;;8.80;95.00;;;;;;5033530;28;20033;-72
2022/01/30 04:32:16;;;;;;;5.60;2.10;;;8.80;94.90;;;;;;5033564;28;20044;-72
2022/01/30 04:34:44;;;;;;;3.15;1.20;;;8.70;95.00;;;;;;5034016;28;20028;-72
2022/01/30 04:37:20;;;;;;;3.42;1.70;;;8.70;95.20;;;;;;5033380;28;20104;-71
2022/01/30 04:40:20;;;;;;;3.60;1.50;;;8.70;95.70;;;;;;5033915;28;20022;-72
2022/01/30 04:59:29;;;;;;;4.53;1.80;;;8.20;95.90;;;;;;5033100;28;20113;-72
2022/01/30 05:02:05;;;;;;;4.90;1.60;;;8.20;95.90;;;;;;5033303;28;20049;-72
2022/01/30 05:09:35;;;;;;;4.03;1.60;;;8.10;96.20;;;;;;5032921;28;20541;-71
2022/01/30 05:12:02;;;;;;;4.20;1.70;;;8.10;96.40;;;;;;5033179;28;20030;-71
2022/01/30 05:14:34;;;;;;;5.13;1.95;;;8.00;96.40;;;;;;5033041;28;20033;-72
2022/01/30 05:17:00;;;;;;;4.90;1.67;;;8.00;96.40;;;;;;5032789;28;20029;-72
2022/01/30 05:19:26;;;;;;;6.40;1.80;;;8.00;96.40;;;;;;5032755;28;20033;-72
2022/01/30 05:21:53;;;;;;;3.55;1.55;;;7.90;96.50;;;;;;5032635;28;20053;-71
2022/01/30 05:24:19;;;;;;;;;;;7.90;96.50;;;;;;5032948;28;20095;-73
2022/01/30 05:26:47;;;;;;;3.50;1.60;;;7.90;96.50;;;;;;5014654;28;20369;-72
2022/01/30 05:29:14;;;;;;;3.47;1.70;;;7.90;96.60;;;;;;5032402;28;20032;-71
2022/01/30 05:31:41;;;;;;;3.38;1.60;;;7.90;96.50;;;;;;5032568;28;20083;-73
2022/01/30 05:34:08;;;;;;;3.92;1.58;;;7.90;96.50;;;;;;5032436;28;20021;-72
2022/01/30 05:36:39;;;;;;;3.50;1.75;;;7.90;96.60;;;;;;5032556;28;20045;-71
2022/01/30 05:39:06;;;;;;;6.05;1.48;;;7.80;96.30;;;;;;5032643;28;20026;-72
2022/01/30 05:41:33;;;;;;;5.07;1.65;;;7.80;95.90;;;;;;5032888;28;20049;-72
2022/01/30 05:44:12;;;;;;;;;;;7.90;96.00;;;;;;5032947;28;20051;-73
2022/01/30 05:46:48;;;;;;;3.53;1.40;;;7.80;96.10;;;;;;5032150;28;19912;-75
2022/01/30 05:49:15;;;;;;;4.85;1.50;;;7.80;95.90;;;;;;5032227;28;20025;-73
2022/01/30 05:51:42;;;;;;;4.25;1.52;;;7.80;95.80;;;;;;5014161;28;20481;-74
2022/01/30 05:54:08;;;;;;;6.07;1.70;;;7.90;95.10;;;;;;5031961;28;20030;-73
2022/01/30 05:56:34;;;;;;;4.33;2.03;;;7.90;94.30;;;;;;5032369;28;20112;-73
2022/01/30 05:59:03;;;;;;;4.17;1.70;;;7.90;94.00;;;;;;5032212;28;20055;-72
2022/01/30 06:01:29;;;;;;;4.75;1.55;;;8.00;93.60;;;;;;5032198;28;20428;-74
2022/01/30 06:03:55;;;;;;;3.47;1.35;;;8.00;92.20;;;;;;5031581;28;20513;-73
2022/01/30 06:06:21;;;;;;;4.88;1.58;;;8.10;92.20;;;;;;5031952;28;20542;-73
2022/01/30 06:09:01;;;;;;;6.82;1.40;;;8.20;92.20;;;;;;5032079;28;20028;-73
2022/01/30 06:11:27;;;;;;;5.07;1.38;;;8.30;91.70;;;;;;5031639;28;20041;-74
2022/01/30 06:13:53;;;;;;;5.30;1.63;;;8.30;91.90;;;;;;5031976;28;20393;-73
2022/01/30 06:16:19;;;;;;;3.63;1.50;;;8.30;91.70;;;;;;5014187;28;20366;-72
2022/01/30 06:18:46;;;;;;;3.45;1.40;;;8.40;93.10;;;;;;5031728;28;20101;-73
2022/01/30 06:21:12;;;;;;;7.03;1.58;;;8.40;91.30;;;;;;5031859;28;20029;-73
2022/01/30 06:23:41;;;;;;;4.28;1.63;;;8.40;91.40;;;;;;5031588;28;20097;-73
2022/01/30 06:26:07;;;;;;;5.63;1.73;;;8.50;91.50;;;;;;5012712;28;20120;-73
2022/01/30 06:28:33;;;;;;;4.10;1.33;;;8.50;91.50;;;;;;5031294;28;20489;-72
2022/01/30 06:30:59;;;;;;;3.25;1.40;;;8.50;91.50;;;;;;5031767;28;20041;-72
2022/01/30 06:33:25;;;;;;;6.65;1.58;;;8.70;91.60;;;;;;5031857;28;20033;-72
2022/01/30 06:35:51;;;;;;;3.33;1.50;;;9.30;91.20;;;;;;5031769;28;20030;-72
2022/01/30 06:38:17;;;;;;;3.83;1.80;;;10.10;89.90;;;;;;5031347;28;20026;-73
2022/01/30 06:40:43;;;;;;;3.60;1.48;;;10.90;87.60;;;;;;5031616;28;20025;-73
2022/01/30 06:43:09;;;;;;;3.00;1.33;;;11.90;85.10;;;;;;5031659;28;20453;-73
2022/01/30 06:45:36;;;;;;;5.32;1.63;;;12.70;83.40;;;;;;5031135;28;20116;-72
2022/01/30 06:48:02;;;;;;;5.97;1.75;;;13.50;81.10;;;;;;5031167;28;20119;-73
2022/01/30 06:50:28;;;;;;;4.22;1.75;;;13.90;78.60;;;;;;5031509;28;20428;-72
2022/01/30 06:52:54;;;;;;;4.70;1.55;;;13.70;78.80;;;;;;5031530;28;20029;-73
2022/01/30 06:55:20;;;;;;;4.60;1.93;;;14.30;75.80;;;;;;5031732;28;20056;-72
2022/01/30 06:57:47;;;;;;;6.07;1.90;;;14.40;75.10;;;;;;5031066;28;20275;-74
2022/01/30 07:00:13;;;;;;;3.47;1.70;;;14.90;74.00;;;;;;5031071;28;20025;-73
2022/01/30 07:02:39;;;;;;;3.83;1.90;;;15.80;73.20;;;;;;5030851;28;20100;-68
2022/01/30 07:05:06;;;;;;;32.47;2.88;;;16.80;70.10;;;;;;5031451;28;20037;-73
2022/01/30 07:07:32;;;;;;;6.18;1.75;;;17.70;69.00;;;;;;5031008;28;20021;-73
2022/01/30 07:09:58;;;;;;;3.78;1.60;;;17.70;66.00;;;;;;5031532;28;20037;-73
2022/01/30 07:12:24;;;;;;;2.90;1.20;;;16.80;66.90;;;;;;5030855;28;20021;-73
2022/01/30 07:14:50;;;;;;;3.17;1.50;;;16.00;68.60;;;;;;5031326;28;20025;-73
2022/01/30 07:17:17;;;;;;;3.75;1.77;;;15.60;69.70;;;;;;5031361;28;20033;-72
2022/01/30 07:19:43;;;;;;;3.65;1.58;;;16.10;69.80;;;;;;5030771;28;20028;-71
2022/01/30 07:22:09;;;;;;;3.92;1.58;;;16.40;69.00;;;;;;5030984;28;20140;-73
2022/01/30 07:24:35;;;;;;;4.72;1.70;;;17.50;66.90;;;;;;5031371;28;20100;-73
2022/01/30 07:27:01;;;;;;;4.60;1.67;;;18.30;65.10;;;;;;5031128;28;20114;-74
2022/01/30 07:29:27;;;;;;;7.88;1.85;;;17.80;64.50;;;;;;5013317;28;20378;-73
2022/01/30 07:31:53;;;;;;;6.07;2.00;;;17.60;63.60;;;;;;5033804;28;20075;-73
2022/01/30 07:34:22;;;;;;;4.88;1.80;;;18.50;62.90;;;;;;5034698;28;20025;-75
2022/01/30 07:36:49;;;;;;;5.03;1.60;;;18.30;63.20;;;;;;5016970;28;20493;-73
2022/01/30 07:39:16;;;;;;;3.00;1.58;;;18.30;62.40;;;;;;5035194;28;20021;-75
2022/01/30 07:41:44;;;;;;;;;;;18.50;62.10;;;;;;5035167;28;20033;-73
2022/01/30 07:44:11;;;;;;;7.80;1.80;;;18.60;61.00;;;;;;5034917;28;19905;-73
2022/01/30 07:46:37;;;;;;;5.10;1.90;;;19.50;62.10;;;;;;5016570;28;20037;-74
2022/01/30 07:49:03;;;;;;;3.65;1.80;;;20.70;58.50;;;;;;5016524;28;20117;-73
2022/01/30 07:51:29;;;;;;;;;;;21.60;55.90;;;;;;5035028;28;20100;-74
2022/01/30 07:53:55;;;;;;;3.67;1.80;;;21.50;55.70;;;;;;5034129;28;19992;-74
2022/01/30 07:56:23;;;;;;;6.43;2.10;;;21.70;54.50;;;;;;5034157;28;20037;-74
2022/01/30 07:58:49;;;;;;;4.80;2.00;;;21.50;55.00;;;;;;5015992;28;20029;-74
2022/01/30 08:01:15;;;;;;;5.85;1.67;;;21.00;55.60;;;;;;5034240;28;20025;-74
2022/01/30 08:03:41;;;;;;;4.22;1.75;;;20.40;56.10;;;;;;5034006;28;20123;-68
2022/01/30 08:06:08;;;;;;;3.25;1.58;;;19.40;57.20;;;;;;5034328;28;20116;-71
2022/01/30 08:08:34;;;;;;;3.72;1.73;;;18.40;58.80;;;;;;5033755;28;20028;-68
2022/01/30 08:11:00;;;;;;;4.90;2.00;;;17.80;60.70;;;;;;5033905;28;20109;-69
2022/01/30 08:13:26;;;;;;;3.80;1.80;;;17.40;61.20;;;;;;5033938;28;20025;-69
2022/01/30 08:15:52;;;;;;;4.00;1.85;;;17.20;61.80;;;;;;5033893;28;20026;-70
2022/01/30 08:18:18;;;;;;;4.43;1.75;;;17.00;62.40;;;;;;5034119;28;20071;-68
2022/01/30 08:20:44;;;;;;;4.27;2.13;;;16.60;62.40;;;;;;5034068;28;20100;-70
2022/01/30 08:23:15;;;;;;;3.92;1.85;;;16.20;62.50;;;;;;5033951;28;20075;-70
2022/01/30 08:25:42;;;;;;;3.95;1.83;;;15.70;63.80;;;;;;5033560;28;20084;-69
2022/01/30 08:28:08;;;;;;;3.67;1.50;;;15.40;65.30;;;;;;5033893;28;20025;-69
2022/01/30 08:30:35;;;;;;;8.00;2.35;;;15.00;66.30;;;;;;5033986;28;20031;-68
2022/01/30 08:33:02;;;;;;;5.00;2.05;;;14.80;68.30;;;;;;5033986;28;20398;-68
2022/01/30 08:35:29;;;;;;;5.35;2.00;;;14.80;69.00;;;;;;5033232;28;20112;-68
2022/01/30 08:37:56;;;;;;;5.20;2.00;;;15.10;69.40;;;;;;5033676;28;20037;-68
2022/01/30 08:40:23;;;;;;;3.95;1.95;;;15.10;66.70;;;;;;5033300;28;20423;-68
2022/01/30 08:42:50;;;;;;;5.05;1.92;;;15.40;66.80;;;;;;5033032;28;20032;-68
2022/01/30 08:45:18;;;;;;;4.07;1.80;;;15.20;66.30;;;;;;5033163;28;20496;-68
2022/01/30 08:47:46;;;;;;;4.82;1.75;;;14.90;66.20;;;;;;5015241;28;20033;-69
2022/01/30 08:50:14;;;;;;;5.30;1.65;;;14.70;66.90;;;;;;5033165;28;20053;-68
2022/01/30 08:52:41;;;;;;;4.40;1.67;;;14.50;67.80;;;;;;5015194;28;20127;-69
2022/01/30 08:55:08;;;;;;;;;;;14.40;69.40;;;;;;5033507;28;20029;-68
2022/01/30 08:57:34;;;;;;;;;;;14.10;69.70;;;;;;5033525;28;19905;-69
2022/01/30 09:00:00;;;;;;;5.57;1.75;;;14.10;70.40;;;;;;5032905;28;19932;-69
2022/01/30 09:02:27;;;;;;;4.72;1.80;;;14.00;70.20;;;;;;5032942;28;20117;-68
2022/01/30 09:04:53;;;;;;;6.15;1.60;;;13.90;71.00;;;;;;5032530;28;20506;-69
2022/01/30 09:07:19;;;;;;;3.85;1.90;;;13.90;71.80;;;;;;5032862;28;20501;-69
2022/01/30 09:09:46;;;;;;;4.63;1.60;;;14.00;71.70;;;;;;5032621;28;20017;-69
2022/01/30 09:12:13;;;;;;;3.17;1.83;;;14.00;71.40;;;;;;5032901;28;20335;-69
2022/01/30 09:14:41;;;;;;;4.22;1.80;;;14.20;73.40;;;;;;5032917;28;20060;-69
2022/01/30 09:17:18;;;;;;;5.05;1.67;;;14.10;74.70;;;;;;5033501;28;20021;-68
2022/01/30 09:19:45;;;;;;;7.53;2.17;;;14.20;74.70;;;;;;5034060;28;20052;-67
2022/01/30 09:22:14;;;;;;;5.70;1.70;;;14.50;75.00;;;;;;5033450;28;20167;-68
2022/01/30 09:24:41;;;;;;;5.47;2.17;;;14.90;76.10;;;;;;5033432;28;20053;-68
2022/01/30 09:27:08;;;;;;;5.43;2.00;;;15.20;74.40;;;;;;5033301;28;20040;-67
2022/01/30 09:29:36;;;;;;;6.32;3.20;;;15.40;73.40;;;;;;5033207;28;20060;-67
2022/01/30 09:32:04;;;;;;;4.55;2.50;;;15.60;76.80;;;;;;5015222;28;20041;-67
2022/01/30 09:34:30;;;;;;;7.80;2.35;;;15.50;70.50;;;;;;5033600;28;20470;-67
2022/01/30 09:36:57;;;;;;;7.03;2.60;;;15.50;71.30;;;;;;5033569;28;20029;-67
2022/01/30 09:39:23;;;;;;;4.78;2.40;;;15.60;73.00;;;;;;5033286;28;20057;-67
2022/01/30 09:41:52;;;;;;;8.43;2.28;;;15.70;70.90;;;;;;5033395;28;20025;-66
2022/01/30 09:44:19;;;;;;;4.03;1.80;;;15.50;71.60;;;;;;5032844;28;20068;-70
2022/01/30 09:46:46;;;;;;;5.47;1.88;;;15.50;71.20;;;;;;5032725;28;20099;-69
2022/01/30 09:49:13;;;;;;;4.40;1.90;;;15.40;73.00;;;;;;5014777;28;20461;-69
2022/01/30 09:51:40;;;;;;;;;;;15.60;71.30;;;;;;5032563;28;20033;-70
2022/01/30 09:54:07;;;;;;;;;;;15.70;67.20;;;;;;5031656;28;19935;-70
2022/01/30 09:56:34;;;;;;;4.70;1.70;;;15.60;66.60;;;;;;5031663;28;19905;-70
2022/01/30 09:59:01;;;;;;;7.70;2.35;;;15.60;64.50;;;;;;5032038;28;20030;-70
2022/01/30 10:01:32;;;;;;;;;;;15.60;65.90;;;;;;5032416;28;20326;-70
2022/01/30 10:03:59;;;;;;;3.15;1.85;;;15.80;65.60;;;;;;5031441;28;20008;-67
2022/01/30 10:06:31;;;;;;;3.58;1.67;;;15.90;65.60;;;;;;5031500;28;20045;-67
2022/01/30 10:08:59;;;;;;;3.83;1.80;;;16.10;67.50;;;;;;5031990;28;20434;-67
2022/01/30 10:11:49;;;;;;;3.13;1.70;;;16.10;80.20;;;;;;5031552;28;20038;-68
2022/01/30 10:14:16;;;;;;;6.35;1.77;;;16.40;80.60;;;;;;5031620;28;20030;-68
2022/01/30 10:16:49;;;;;;;4.13;1.90;;;16.60;67.00;;;;;;5031449;28;20025;-68
2022/01/30 10:19:20;;;;;;;4.95;1.80;;;16.70;67.10;;;;;;5031853;28;20473;-68
2022/01/30 10:22:03;;;;;;;3.63;1.73;;;16.60;66.20;;;;;;5031339;28;20108;-68
2022/01/30 10:24:30;;;;;;;4.90;2.05;;;16.60;65.60;;;;;;5032043;28;20025;-68
2022/01/30 10:26:59;;;;;;;3.92;1.60;;;16.30;65.90;;;;;;5031314;28;20037;-68
2022/01/30 10:29:27;;;;;;;5.97;2.20;;;16.20;66.80;;;;;;5031306;28;20108;-69
2022/01/30 10:32:00;;;;;;;4.40;1.73;;;16.20;65.80;;;;;;5013368;28;20466;-65
2022/01/30 10:34:29;;;;;;;5.82;1.73;;;16.30;65.40;;;;;;5031532;28;20036;-69
2022/01/30 10:37:19;;;;;;;4.93;1.85;;;16.40;64.90;;;;;;5031268;28;20082;-69
2022/01/30 10:39:54;;;;;;;6.68;1.83;;;16.60;65.80;;;;;;5028569;28;20068;-68
2022/01/30 10:42:38;;;;;;;5.22;2.05;;;16.60;65.90;;;;;;5031569;28;20033;-69
2022/01/30 10:45:31;;;;;;;2.78;1.40;;;16.60;66.80;;;;;;5031598;28;20032;-69
2022/01/30 10:48:17;;;;;;;3.33;1.52;;;16.20;62.60;;;;;;5030186;28;20203;-69
2022/01/30 10:50:47;;;;;;;6.10;1.63;;;16.50;65.50;;;;;;5031316;28;20025;-69
2022/01/30 10:53:24;;;;;;;5.13;1.63;;;16.60;64.00;;;;;;5031326;28;20079;-68
2022/01/30 10:55:51;;;;;;;5.10;1.83;;;16.80;63.40;;;;;;5031148;28;20025;-71
2022/01/30 10:58:20;;;;;;;3.80;1.50;;;16.70;63.90;;;;;;5031035;28;20025;-69
2022/01/30 11:00:52;;;;;;;3.15;1.63;;;16.60;66.30;;;;;;5031278;28;20053;-69
2022/01/30 11:03:37;;;;;;;4.18;1.30;;;16.50;67.80;;;;;;5030890;28;20077;-70
2022/01/30 11:06:04;;;;;;;4.65;1.60;;;16.60;66.70;;;;;;5030220;28;20041;-69
2022/01/30 11:08:34;;;;;;;;;;;16.60;69.40;;;;;;5031505;28;20013;-69
2022/01/30 11:11:03;;;;;;;4.70;1.48;;;16.90;68.40;;;;;;5013209;28;20011;-69
2022/01/30 11:13:33;;;;;;;2.53;1.25;;;17.00;68.50;;;;;;5031203;28;20039;-70
2022/01/30 11:18:51;;;;;;;4.70;1.73;;;17.10;67.50;;;;;;5030496;28;20505;-68
2022/01/30 11:21:22;;;;;;;5.55;1.60;;;16.80;69.20;;;;;;5030974;28;20029;-68
2022/01/30 11:23:51;;;;;;;5.18;1.77;;;16.80;69.20;;;;;;5030688;28;20043;-69
2022/01/30 11:26:18;;;;;;;3.95;1.60;;;17.10;69.60;;;;;;5029549;28;20041;-69
2022/01/30 11:28:45;;;;;;;6.72;1.90;;;17.40;68.80;;;;;;5030587;28;20030;-68
2022/01/30 11:31:16;;;;;;;7.03;1.40;;;17.20;70.60;;;;;;5030494;28;20057;-69
2022/01/30 11:33:44;;;;;;;4.10;1.58;;;17.30;73.50;;;;;;5029232;28;20026;-68
2022/01/30 11:36:11;;;;;;;5.68;1.67;;;17.30;74.70;;;;;;5029443;28;20080;-69
2022/01/30 11:38:40;;;;;;;5.63;1.60;;;17.30;75.90;;;;;;5010638;28;20025;-69
2022/01/30 11:41:17;;;;;;;5.40;2.10;;;17.50;76.10;;;;;;5030155;28;20420;-69
2022/01/30 11:44:17;;;;;;;5.05;2.15;;;17.00;77.80;;;;;;5030534;28;20135;-68
2022/01/30 11:46:52;;;;;;;8.75;2.20;;;16.80;79.10;;;;;;5030308;28;20435;-70
2022/01/30 11:49:19;;;;;;;6.30;2.40;;;17.10;79.60;;;;;;5030479;28;20021;-70
2022/01/30 11:51:53;;;;;;;4.60;2.10;;;16.90;79.80;;;;;;5012457;28;20041;-70
2022/01/30 11:54:38;;;;;;;4.78;2.10;;;16.70;79.30;;;;;;5030605;28;20078;-68
2022/01/30 11:57:25;;;;;;;9.38;2.15;;;16.80;80.00;;;;;;5030604;28;20422;-68
2022/01/30 11:59:53;;;;;;;6.85;2.38;;;16.80;80.80;;;;;;5016716;28;20033;-69
2022/01/30 12:02:24;;;;;;;3.97;1.70;;;17.00;79.90;;;;;;5030329;28;20108;-68
2022/01/30 12:05:02;;;;;;;9.85;2.78;;;16.90;79.50;;;;;;5012252;28;20505;-70
2022/01/30 12:07:48;;;;;;;6.85;2.13;;;16.50;81.70;;;;;;5030148;28;20461;-70
2022/01/30 12:10:26;;;;;;;5.57;2.33;;;16.70;80.60;;;;;;5030247;28;20029;-70
2022/01/30 12:13:03;;;;;;;8.27;2.38;;;16.90;81.00;;;;;;5030513;28;20152;-70
2022/01/30 12:15:41;;;;;;;6.45;2.25;;;17.00;80.80;;;;;;5030558;28;20026;-69
2022/01/30 12:18:09;;;;;;;6.53;2.35;;;17.10;80.10;;;;;;5033373;28;20030;-68
2022/01/30 12:20:56;;;;;;;6.38;2.00;;;17.10;80.20;;;;;;5033661;28;20073;-71
2022/01/30 12:23:28;;;;;;;7.53;2.63;;;17.20;80.80;;;;;;5016013;28;20029;-69
2022/01/30 12:26:06;;;;;;;7.93;2.60;;;17.00;80.20;;;;;;5033660;28;20105;-70
2022/01/30 12:28:55;;;;;;;6.88;2.15;;;17.00;80.40;;;;;;5033698;28;20040;-67
2022/01/30 12:31:34;;;;;;;4.80;2.03;;;17.30;79.80;;;;;;5033640;28;20090;-69
2022/01/30 12:34:05;;;;;;;6.13;2.05;;;17.30;81.00;;;;;;5033614;28;20021;-69
2022/01/30 12:36:36;;;;;;;9.65;3.00;;;17.50;80.10;;;;;;5015421;28;20528;-69
2022/01/30 12:39:07;;;;;;;6.10;2.55;;;17.40;83.20;;;;;;5033757;28;20070;-69
2022/01/30 12:41:36;;;;;;;9.05;2.38;;;17.30;86.50;;;;;;5033233;28;20139;-69
2022/01/30 12:44:09;;;;;;;7.47;2.60;;;17.20;88.20;;;;;;5015579;28;20048;-68
2022/01/30 12:46:36;;;;;;;7.65;2.30;;;17.20;89.00;;;;;;5033090;28;20370;-69
2022/01/30 12:49:11;;;;;;;6.05;2.63;;;17.40;88.30;;;;;;5033326;28;20131;-67
2022/01/30 12:51:40;;;;;;;7.95;2.20;;;17.30;88.90;;;;;;5015779;28;20030;-70
2022/01/30 12:54:07;;;;;;;8.35;2.53;;;17.50;89.80;;;;;;5033299;28;20322;-70
2022/01/30 12:56:36;;;;;;;11.32;2.70;;;17.40;90.10;;;;;;5014896;28;20057;-68
2022/01/30 12:59:11;;;;;;;8.05;2.80;;;17.60;90.10;;;;;;5032607;28;20034;-70
2022/01/30 13:01:44;;;;;;;11.15;2.45;;;17.70;90.30;;;;;;5015446;28;20160;-70
2022/01/30 13:04:16;;;;;;;9.43;2.65;;;17.70;90.30;;;;;;5032635;28;20436;-70
2022/01/30 13:06:48;;;;;;;8.52;2.50;;;17.70;90.40;;;;;;5033312;28;20041;-68
2022/01/30 13:09:22;;;;;;;10.20;2.65;;;17.60;90.50;;;;;;5014955;28;20355;-70
2022/01/30 13:11:52;;;;;;;11.38;2.85;;;17.60;90.60;;;;;;5032735;28;20143;-70
2022/01/30 13:14:19;;;;;;;9.00;2.55;;;17.20;90.90;;;;;;5014668;28;20022;-69
2022/01/30 13:16:51;;;;;;;12.40;3.20;;;17.20;91.20;;;;;;5032847;28;20052;-69
2022/01/30 13:19:38;;;;;;;11.35;3.53;;;17.20;90.90;;;;;;5033125;28;20032;-70
2022/01/30 13:22:07;;;;;;;11.10;3.45;;;17.40;91.20;;;;;;5032931;28;20029;-69
2022/01/30 13:24:34;;;;;;;6.97;2.58;;;17.40;91.60;;;;;;5014927;28;20500;-69
2022/01/30 13:27:08;;;;;;;8.80;2.53;;;17.40;91.90;;;;;;5014784;28;20037;-70
2022/01/30 13:29:37;;;;;;;9.75;2.47;;;17.50;91.90;;;;;;5031975;28;20026;-71
2022/01/30 13:32:11;;;;;;;10.10;2.58;;;17.50;91.80;;;;;;5015275;28;20128;-70
2022/01/30 13:34:41;;;;;;;10.40;2.60;;;17.60;91.60;;;;;;5032604;28;20022;-70
2022/01/30 13:37:14;;;;;;;11.90;2.20;;;17.40;92.00;;;;;;5033058;28;20028;-69
2022/01/30 13:47:53;;;;;;;8.23;2.17;;;17.10;93.40;;;;;;5031929;28;20045;-71
2022/01/30 13:50:21;;;;;;;13.25;2.55;;;17.20;93.30;;;;;;5032467;28;20017;-71
2022/01/30 13:52:47;;;;;;;10.45;2.70;;;17.20;93.20;;;;;;5032661;28;20517;-70
2022/01/30 13:55:14;;;;;;;9.43;2.33;;;17.20;93.50;;;;;;5033338;28;20021;-68
2022/01/30 13:57:43;;;;;;;19.65;6.82;;;17.20;93.30;;;;;;5032663;28;20030;-70
2022/01/30 14:00:18;;;;;;;17.83;4.88;;;17.10;93.00;;;;;;5031870;28;20112;-68
2022/01/30 14:03:01;;;;;;;10.07;3.03;;;17.20;93.00;;;;;;5031786;28;20088;-70
2022/01/30 14:05:39;;;;;;;9.20;2.70;;;17.30;93.00;;;;;;5031835;28;20038;-71